Time;durP1;ratioP1;P1;durP2;ratioP2;P2;SDS_P1;SDS_P2;PMS_P1;PMS_P2;Temp;Humidity;BMP_temperature;BMP_pressure;BME280_temperature;BME280_humidity;BME280_pressure;Samples;Min_cycle;Max_cycle;Signal;HPM_P1;HPM_P2
2023/03/17 00:00:49;;;;;;;0.10;0.10;;;7.50;79.00;;;;;;5073099;28;20032;-72
2023/03/17 00:03:25;;;;;;;0.00;0.00;;;7.50;78.90;;;;;;5055478;28;20041;-72
2023/03/17 00:05:52;;;;;;;0.10;0.10;;;7.50;78.90;;;;;;5072846;28;20427;-73
2023/03/17 00:08:36;;;;;;;0.20;0.20;;;7.60;78.80;;;;;;5088461;28;20043;-72
2023/03/17 00:11:02;;;;;;;0.20;0.20;;;7.50;78.90;;;;;;5071305;28;20487;-73
2023/03/17 00:13:29;;;;;;;0.00;0.00;;;7.50;78.90;;;;;;5072604;28;20143;-73
2023/03/17 00:15:59;;;;;;;0.63;0.63;;;7.60;78.80;;;;;;5072478;28;20131;-73
2023/03/17 00:18:24;;;;;;;0.00;0.00;;;7.60;78.70;;;;;;5072349;28;20071;-73
2023/03/17 00:20:51;;;;;;;0.00;0.00;;;7.60;78.60;;;;;;5072408;28;20129;-73
2023/03/17 00:23:21;;;;;;;0.00;0.00;;;7.60;78.50;;;;;;5072825;28;20061;-73
2023/03/17 00:25:48;;;;;;;0.08;0.08;;;7.60;78.50;;;;;;5072329;28;20500;-73
2023/03/17 00:28:22;;;;;;;0.10;0.10;;;7.60;78.50;;;;;;5071561;28;20071;-73
2023/03/17 00:30:53;;;;;;;0.00;0.00;;;7.60;78.60;;;;;;5072355;28;20036;-73
2023/03/17 00:33:26;;;;;;;0.40;0.40;;;7.60;78.50;;;;;;5038311;28;20109;-73
2023/03/17 00:35:53;;;;;;;0.00;0.00;;;7.60;78.60;;;;;;5071449;28;20151;-73
2023/03/17 00:38:20;;;;;;;0.00;0.00;;;7.60;78.50;;;;;;5082641;28;20085;-73
2023/03/17 00:40:47;;;;;;;0.00;0.00;;;7.60;78.50;;;;;;5072018;28;20174;-73
2023/03/17 00:43:13;;;;;;;0.00;0.00;;;7.60;78.50;;;;;;5072329;28;20063;-72
2023/03/17 00:45:40;;;;;;;0.10;0.10;;;7.60;78.60;;;;;;5072255;28;20125;-72
2023/03/17 00:48:17;;;;;;;0.00;0.00;;;7.60;78.60;;;;;;5073412;28;20067;-72
2023/03/17 00:50:44;;;;;;;0.00;0.00;;;7.50;78.60;;;;;;5071771;28;20036;-72
2023/03/17 00:53:12;;;;;;;0.00;0.00;;;7.50;78.70;;;;;;5071943;28;20044;-72
2023/03/17 00:55:38;;;;;;;0.00;0.00;;;7.60;78.80;;;;;;5054219;28;20047;-72
2023/03/17 00:58:33;;;;;;;0.13;0.13;;;7.50;78.70;;;;;;5071996;28;20057;-73
2023/03/17 01:01:00;;;;;;;0.00;0.00;;;7.60;78.70;;;;;;5054156;28;20048;-73
2023/03/17 01:03:26;;;;;;;0.00;0.00;;;7.50;78.70;;;;;;5053700;28;20401;-72
2023/03/17 01:05:53;;;;;;;0.00;0.00;;;7.50;78.60;;;;;;5072749;28;20420;-73
2023/03/17 01:08:20;;;;;;;0.00;0.00;;;7.50;78.60;;;;;;5071242;28;20122;-73
2023/03/17 01:10:46;;;;;;;0.00;0.00;;;7.60;78.60;;;;;;5071584;28;20051;-73
2023/03/17 01:13:14;;;;;;;0.00;0.00;;;7.50;78.50;;;;;;5071581;28;20187;-73
2023/03/17 01:15:45;;;;;;;0.00;0.00;;;7.50;78.50;;;;;;5037203;28;20145;-72
2023/03/17 01:18:12;;;;;;;0.00;0.00;;;7.60;78.50;;;;;;5071411;28;20044;-72
2023/03/17 01:20:38;;;;;;;0.00;0.00;;;7.60;78.40;;;;;;5075697;28;20044;-73
2023/03/17 01:23:04;;;;;;;0.00;0.00;;;7.60;78.10;;;;;;5071385;28;20505;-72
2023/03/17 01:25:30;;;;;;;0.00;0.00;;;7.60;78.00;;;;;;5037124;28;20051;-72
2023/03/17 01:27:58;;;;;;;0.32;0.32;;;7.60;78.10;;;;;;5070957;28;20090;-72
2023/03/17 01:30:31;;;;;;;0.00;0.00;;;7.60;78.00;;;;;;5071237;28;20044;-72
2023/03/17 01:32:57;;;;;;;0.10;0.10;;;7.60;78.00;;;;;;5071021;28;20048;-72
2023/03/17 01:35:25;;;;;;;0.40;0.40;;;7.60;77.80;;;;;;5071285;28;20037;-72
2023/03/17 01:37:51;;;;;;;0.00;0.00;;;7.60;77.70;;;;;;5070848;28;20075;-73
2023/03/17 01:40:21;;;;;;;0.00;0.00;;;7.60;77.70;;;;;;5069809;28;20056;-73
2023/03/17 01:43:09;;;;;;;0.40;0.40;;;7.70;77.70;;;;;;5070479;28;20064;-72
2023/03/17 01:46:29;;;;;;;0.00;0.00;;;7.60;77.60;;;;;;5043283;28;20056;-72
2023/03/17 01:49:22;;;;;;;0.00;0.00;;;7.60;77.50;;;;;;5038329;28;20079;-72
2023/03/17 01:51:56;;;;;;;0.10;0.10;;;7.60;77.30;;;;;;5084499;28;20055;-72
2023/03/17 01:54:38;;;;;;;1.38;0.80;;;7.60;77.30;;;;;;5052891;28;20059;-72
2023/03/17 01:57:20;;;;;;;0.00;0.00;;;7.60;77.30;;;;;;5070374;28;20056;-72
2023/03/17 01:59:52;;;;;;;0.00;0.00;;;7.60;77.30;;;;;;5070812;28;20048;-72
2023/03/17 02:02:24;;;;;;;0.00;0.00;;;7.60;77.20;;;;;;5069981;28;20048;-72
2023/03/17 02:04:51;;;;;;;0.00;0.00;;;7.60;77.30;;;;;;5072616;28;20036;-72
2023/03/17 02:07:19;;;;;;;0.00;0.00;;;7.60;77.40;;;;;;5070085;28;20045;-72
2023/03/17 02:09:45;;;;;;;0.00;0.00;;;7.60;77.30;;;;;;5069621;28;20139;-72
2023/03/17 02:12:12;;;;;;;0.00;0.00;;;7.60;77.40;;;;;;5070381;28;20048;-72
2023/03/17 02:14:38;;;;;;;0.20;0.20;;;7.60;77.40;;;;;;5069881;28;20511;-72
2023/03/17 02:17:04;;;;;;;0.08;0.08;;;7.60;77.40;;;;;;5069711;28;20098;-72
2023/03/17 02:19:30;;;;;;;0.00;0.00;;;7.60;77.40;;;;;;5070061;28;20044;-72
2023/03/17 02:21:58;;;;;;;4.22;1.85;;;7.60;77.30;;;;;;5035535;28;20424;-72
2023/03/17 02:24:34;;;;;;;0.00;0.00;;;7.50;77.30;;;;;;5069712;28;20074;-72
2023/03/17 02:27:05;;;;;;;0.00;0.00;;;7.60;77.30;;;;;;5070090;28;20086;-72
2023/03/17 02:29:34;;;;;;;0.00;0.00;;;7.60;77.30;;;;;;5071296;28;20048;-72
2023/03/17 02:32:01;;;;;;;0.00;0.00;;;7.60;77.20;;;;;;5069672;28;20097;-72
2023/03/17 02:34:26;;;;;;;0.00;0.00;;;7.60;77.20;;;;;;5057239;28;20493;-72
2023/03/17 02:36:52;;;;;;;0.00;0.00;;;7.60;77.20;;;;;;5065613;28;20127;-72
2023/03/17 02:39:17;;;;;;;0.00;0.00;;;7.50;77.20;;;;;;5068379;28;20037;-72
2023/03/17 02:41:43;;;;;;;0.10;0.10;;;7.40;77.30;;;;;;5051526;28;20076;-72
2023/03/17 02:44:09;;;;;;;0.00;0.00;;;7.40;77.30;;;;;;5069146;28;20052;-72
2023/03/17 02:46:35;;;;;;;0.00;0.00;;;7.40;77.30;;;;;;5068146;28;20601;-72
2023/03/17 02:49:02;;;;;;;0.00;0.00;;;7.40;77.30;;;;;;5068523;28;20044;-72
2023/03/17 02:51:28;;;;;;;0.10;0.10;;;7.40;77.40;;;;;;5068152;28;20088;-72
2023/03/17 02:53:53;;;;;;;0.00;0.00;;;7.50;77.40;;;;;;5068833;28;20080;-72
2023/03/17 02:56:19;;;;;;;0.00;0.00;;;7.40;77.40;;;;;;5051160;28;20045;-72
2023/03/17 02:58:45;;;;;;;0.00;0.00;;;7.40;77.50;;;;;;5033879;28;20049;-72
2023/03/17 03:01:11;;;;;;;0.00;0.00;;;7.40;77.50;;;;;;5034552;28;20086;-72
2023/03/17 03:03:37;;;;;;;0.00;0.00;;;7.40;77.50;;;;;;5076758;28;20048;-72
2023/03/17 03:06:03;;;;;;;0.00;0.00;;;7.40;77.50;;;;;;5054335;28;20086;-72
2023/03/17 03:08:29;;;;;;;0.00;0.00;;;7.50;77.50;;;;;;5069889;28;20036;-73
2023/03/17 03:10:55;;;;;;;0.00;0.00;;;7.40;77.50;;;;;;5068667;28;20490;-72
2023/03/17 03:13:21;;;;;;;0.10;0.10;;;7.40;77.50;;;;;;5051003;28;20123;-72
2023/03/17 03:15:47;;;;;;;0.00;0.00;;;7.40;77.60;;;;;;5068837;28;20045;-72
2023/03/17 03:18:13;;;;;;;0.00;0.00;;;7.40;77.40;;;;;;5070783;28;20045;-72
2023/03/17 03:20:41;;;;;;;0.00;0.00;;;7.40;77.50;;;;;;5068621;28;20413;-72
2023/03/17 03:23:07;;;;;;;0.10;0.10;;;7.40;77.50;;;;;;5034162;28;20040;-72
2023/03/17 03:25:36;;;;;;;0.00;0.00;;;7.40;77.40;;;;;;5068855;28;20084;-72
2023/03/17 03:28:03;;;;;;;0.00;0.00;;;7.40;77.50;;;;;;5068554;28;20069;-72
2023/03/17 03:30:28;;;;;;;0.10;0.10;;;7.40;77.50;;;;;;5068773;28;20040;-72
2023/03/17 03:32:54;;;;;;;0.00;0.00;;;7.40;77.50;;;;;;5073752;28;20043;-72
2023/03/17 03:35:20;;;;;;;0.00;0.00;;;7.40;77.50;;;;;;5068635;28;20123;-72
2023/03/17 03:37:46;;;;;;;0.00;0.00;;;7.40;77.50;;;;;;5067969;28;20405;-72
2023/03/17 03:40:12;;;;;;;1.23;1.13;;;7.40;77.50;;;;;;5033811;28;20048;-72
2023/03/17 03:42:37;;;;;;;0.00;0.00;;;7.40;77.50;;;;;;5050237;28;20498;-72
2023/03/17 03:45:04;;;;;;;0.00;0.00;;;7.50;77.50;;;;;;5068467;28;20051;-72
2023/03/17 03:47:29;;;;;;;0.00;0.00;;;7.50;77.40;;;;;;5055357;28;20070;-72
2023/03/17 03:49:55;;;;;;;0.05;0.05;;;7.50;77.40;;;;;;5068062;28;20501;-72
2023/03/17 03:52:20;;;;;;;0.00;0.00;;;7.50;77.40;;;;;;5067890;28;20056;-72
2023/03/17 03:54:46;;;;;;;0.00;0.00;;;7.50;77.40;;;;;;5068776;28;20060;-72
2023/03/17 03:57:11;;;;;;;0.93;0.93;;;7.40;77.30;;;;;;5050555;28;20231;-72
2023/03/17 03:59:37;;;;;;;0.00;0.00;;;7.40;77.30;;;;;;5067232;28;20437;-73
2023/03/17 04:02:03;;;;;;;0.08;0.08;;;7.40;77.40;;;;;;5074089;28;20047;-72
2023/03/17 04:04:29;;;;;;;0.00;0.00;;;7.40;77.40;;;;;;5083058;28;20045;-72
2023/03/17 04:06:54;;;;;;;0.00;0.00;;;7.40;77.40;;;;;;5071986;28;20106;-72
2023/03/17 04:09:20;;;;;;;0.05;0.05;;;7.40;77.50;;;;;;5036766;28;20044;-72
2023/03/17 04:11:46;;;;;;;0.00;0.00;;;7.40;77.50;;;;;;5071695;28;20055;-72
2023/03/17 04:14:11;;;;;;;0.00;0.00;;;7.40;77.50;;;;;;5071680;28;20045;-72
2023/03/17 04:16:37;;;;;;;1.05;0.95;;;7.30;77.50;;;;;;5040818;28;20135;-72
2023/03/17 04:19:02;;;;;;;0.00;0.00;;;7.30;77.60;;;;;;5080143;28;20050;-72
2023/03/17 04:21:28;;;;;;;0.00;0.00;;;7.20;77.70;;;;;;5071861;28;20744;-72
2023/03/17 04:23:54;;;;;;;0.00;0.00;;;7.20;77.80;;;;;;5036985;28;20059;-72
2023/03/17 04:26:21;;;;;;;0.45;0.45;;;7.20;77.80;;;;;;5071091;28;20048;-72
2023/03/17 04:28:48;;;;;;;0.00;0.00;;;7.20;77.90;;;;;;5070534;28;20041;-72
2023/03/17 04:31:14;;;;;;;0.00;0.00;;;7.20;77.90;;;;;;5072476;28;20052;-72
2023/03/17 04:33:40;;;;;;;0.00;0.00;;;7.10;78.00;;;;;;5078664;28;20054;-72
2023/03/17 04:36:06;;;;;;;0.00;0.00;;;7.20;78.10;;;;;;5073394;28;20044;-72
2023/03/17 04:38:32;;;;;;;0.00;0.00;;;7.20;78.00;;;;;;5071240;28;20037;-72
2023/03/17 04:40:58;;;;;;;0.00;0.00;;;7.10;78.00;;;;;;5053058;28;20041;-72
2023/03/17 04:43:24;;;;;;;0.00;0.00;;;7.20;78.00;;;;;;5071154;28;20174;-72
2023/03/17 04:45:50;;;;;;;0.22;0.22;;;7.20;78.00;;;;;;5071469;28;20044;-72
2023/03/17 04:48:16;;;;;;;0.00;0.00;;;7.10;78.00;;;;;;5082886;28;20044;-72
2023/03/17 04:50:43;;;;;;;0.00;0.00;;;7.10;78.20;;;;;;5074748;28;20032;-72
2023/03/17 04:53:08;;;;;;;0.00;0.00;;;7.10;78.10;;;;;;5070857;28;20139;-72
2023/03/17 04:55:34;;;;;;;0.00;0.00;;;7.10;78.20;;;;;;5070931;28;20465;-72
2023/03/17 04:58:00;;;;;;;0.30;0.30;;;7.20;78.30;;;;;;5070978;28;20052;-72
2023/03/17 05:00:26;;;;;;;0.00;0.00;;;7.10;78.40;;;;;;5036137;28;20094;-72
2023/03/17 05:02:52;;;;;;;0.00;0.00;;;7.20;78.40;;;;;;5070718;28;20055;-72
2023/03/17 05:05:17;;;;;;;0.00;0.00;;;7.20;78.50;;;;;;5056084;28;20060;-72
2023/03/17 05:07:43;;;;;;;0.00;0.00;;;7.20;78.50;;;;;;5036530;28;20468;-72
2023/03/17 05:10:11;;;;;;;0.10;0.10;;;7.20;78.40;;;;;;5036334;28;20045;-72
2023/03/17 05:12:39;;;;;;;0.10;0.10;;;7.20;78.40;;;;;;5070879;28;20044;-72
2023/03/17 05:15:06;;;;;;;0.40;0.40;;;7.20;78.40;;;;;;5070858;28;20055;-72
2023/03/17 05:17:31;;;;;;;0.00;0.00;;;7.20;78.40;;;;;;5070491;28;20051;-72
2023/03/17 05:19:57;;;;;;;0.00;0.00;;;7.30;78.30;;;;;;5068182;28;20040;-72
2023/03/17 05:22:22;;;;;;;0.00;0.00;;;7.30;78.10;;;;;;5068885;28;20888;-72
2023/03/17 05:24:48;;;;;;;0.00;0.00;;;7.30;78.00;;;;;;5049333;28;20044;-73
2023/03/17 05:27:14;;;;;;;0.00;0.00;;;7.30;78.10;;;;;;5068756;28;20461;-73
2023/03/17 05:29:39;;;;;;;0.00;0.00;;;7.30;78.10;;;;;;5068668;28;20047;-72
2023/03/17 05:32:05;;;;;;;0.00;0.00;;;7.30;78.00;;;;;;5068501;28;20048;-73
2023/03/17 05:34:30;;;;;;;0.00;0.00;;;7.40;78.00;;;;;;5069014;28;20098;-72
2023/03/17 05:36:56;;;;;;;0.00;0.00;;;7.30;78.00;;;;;;5069154;28;20068;-73
2023/03/17 05:39:22;;;;;;;0.03;0.03;;;7.40;78.00;;;;;;5069089;28;20093;-73
2023/03/17 05:41:49;;;;;;;0.30;0.30;;;7.30;78.00;;;;;;5069266;28;20036;-69
2023/03/17 05:44:15;;;;;;;0.25;0.25;;;7.30;78.00;;;;;;5067713;28;20389;-72
2023/03/17 05:46:41;;;;;;;0.00;0.00;;;7.40;78.00;;;;;;5065428;28;20048;-72
2023/03/17 05:49:06;;;;;;;0.00;0.00;;;7.40;78.00;;;;;;5069153;28;20064;-71
2023/03/17 05:51:32;;;;;;;0.00;0.00;;;7.30;78.00;;;;;;5067831;28;20090;-72
2023/03/17 05:53:58;;;;;;;0.00;0.00;;;7.30;78.10;;;;;;5068648;28;20098;-71
2023/03/17 05:56:25;;;;;;;0.00;0.00;;;7.30;78.10;;;;;;5067252;28;20048;-71
2023/03/17 05:58:51;;;;;;;0.08;0.08;;;7.40;78.20;;;;;;5068686;28;20119;-71
2023/03/17 06:01:16;;;;;;;0.00;0.00;;;7.40;78.20;;;;;;5066936;28;20485;-71
2023/03/17 06:03:42;;;;;;;0.17;0.17;;;7.40;78.10;;;;;;5069215;28;20078;-72
2023/03/17 06:06:08;;;;;;;0.00;0.00;;;7.40;78.10;;;;;;5064741;28;20106;-71
2023/03/17 06:08:33;;;;;;;0.00;0.00;;;7.40;78.20;;;;;;5046309;28;20087;-71
2023/03/17 06:10:59;;;;;;;0.00;0.00;;;7.50;78.20;;;;;;5064005;28;20131;-71
2023/03/17 06:13:25;;;;;;;0.10;0.10;;;7.50;78.10;;;;;;5067426;28;20082;-71
2023/03/17 06:15:51;;;;;;;0.00;0.00;;;7.50;78.00;;;;;;5050846;28;20044;-70
2023/03/17 06:18:18;;;;;;;0.08;0.08;;;7.50;77.80;;;;;;5067665;28;20531;-70
2023/03/17 06:20:44;;;;;;;0.00;0.00;;;7.50;77.80;;;;;;5030918;28;20124;-71
2023/03/17 06:23:10;;;;;;;0.00;0.00;;;7.50;77.80;;;;;;5068006;28;20071;-70
2023/03/17 06:25:35;;;;;;;0.00;0.00;;;7.50;77.70;;;;;;5067396;28;20076;-70
2023/03/17 06:28:02;;;;;;;0.00;0.00;;;7.60;77.70;;;;;;5030726;28;20040;-71
2023/03/17 06:30:29;;;;;;;0.00;0.00;;;7.60;77.70;;;;;;5067750;28;20045;-71
2023/03/17 06:32:55;;;;;;;0.00;0.00;;;7.60;77.70;;;;;;5063594;28;20040;-71
2023/03/17 06:35:21;;;;;;;0.00;0.00;;;7.60;77.50;;;;;;5068125;28;20098;-70
2023/03/17 06:37:47;;;;;;;0.10;0.10;;;7.50;77.40;;;;;;5068175;28;20087;-70
2023/03/17 06:40:13;;;;;;;0.00;0.00;;;7.60;77.40;;;;;;5064165;28;20072;-70
2023/03/17 06:42:39;;;;;;;0.00;0.00;;;7.60;77.50;;;;;;5068419;28;20040;-70
2023/03/17 06:45:05;;;;;;;0.00;0.00;;;7.70;77.50;;;;;;5067496;28;20051;-71
2023/03/17 06:47:31;;;;;;;0.00;0.00;;;7.60;77.50;;;;;;5066054;28;20048;-70
2023/03/17 06:49:56;;;;;;;0.00;0.00;;;7.70;77.50;;;;;;5066995;28;20036;-70
2023/03/17 06:52:22;;;;;;;0.00;0.00;;;7.70;77.50;;;;;;5033260;28;20410;-71
2023/03/17 06:54:47;;;;;;;0.00;0.00;;;7.70;77.50;;;;;;5044851;28;20071;-71
2023/03/17 06:57:13;;;;;;;0.73;0.63;;;7.70;77.70;;;;;;5048627;28;20048;-71
2023/03/17 06:59:39;;;;;;;0.00;0.00;;;7.70;77.90;;;;;;5066709;28;20102;-70
2023/03/17 07:02:04;;;;;;;0.00;0.00;;;7.70;78.00;;;;;;5067513;28;20489;-71
2023/03/17 07:04:30;;;;;;;0.00;0.00;;;7.70;78.00;;;;;;5066692;28;20054;-71
2023/03/17 07:06:56;;;;;;;0.10;0.10;;;7.80;78.00;;;;;;5067223;28;20079;-71
2023/03/17 07:09:22;;;;;;;0.00;0.00;;;7.80;77.80;;;;;;5049267;28;20126;-72
2023/03/17 07:11:48;;;;;;;0.10;0.10;;;7.80;77.60;;;;;;5067984;28;20434;-72
2023/03/17 07:14:14;;;;;;;0.10;0.10;;;7.90;77.60;;;;;;5045439;28;20032;-72
2023/03/17 07:16:39;;;;;;;0.00;0.00;;;7.90;77.50;;;;;;5066657;28;20040;-71
2023/03/17 07:19:06;;;;;;;0.00;0.00;;;7.90;77.40;;;;;;5068057;28;20516;-71
2023/03/17 07:21:31;;;;;;;0.00;0.00;;;7.90;77.20;;;;;;5069845;28;20051;-71
2023/03/17 07:23:57;;;;;;;0.00;0.00;;;8.00;77.20;;;;;;5068032;28;20045;-74
2023/03/17 07:26:23;;;;;;;0.00;0.00;;;8.10;77.30;;;;;;5069509;28;20056;-73
2023/03/17 07:28:49;;;;;;;0.10;0.10;;;8.10;77.10;;;;;;5050412;28;20051;-73
2023/03/17 07:31:15;;;;;;;0.00;0.00;;;8.20;77.00;;;;;;5069267;28;20404;-73
2023/03/17 07:33:40;;;;;;;0.00;0.00;;;8.20;76.90;;;;;;5050870;28;20055;-73
2023/03/17 07:36:07;;;;;;;0.03;0.03;;;8.20;76.80;;;;;;5035009;28;20048;-73
2023/03/17 07:38:33;;;;;;;0.00;0.00;;;8.30;76.60;;;;;;5071707;28;20041;-68
2023/03/17 07:40:59;;;;;;;0.00;0.00;;;8.40;76.40;;;;;;5072050;28;20045;-68
2023/03/17 07:43:25;;;;;;;0.00;0.00;;;8.50;76.50;;;;;;5072290;28;20843;-68
2023/03/17 07:45:51;;;;;;;0.00;0.00;;;8.60;76.40;;;;;;5072356;28;20047;-69
2023/03/17 07:48:17;;;;;;;0.52;0.52;;;8.60;76.40;;;;;;5073263;28;20155;-70
2023/03/17 07:50:44;;;;;;;0.10;0.10;;;8.60;76.10;;;;;;5051048;28;20037;-69
2023/03/17 07:53:09;;;;;;;0.05;0.05;;;8.70;75.90;;;;;;5072491;28;20126;-69
2023/03/17 07:55:37;;;;;;;0.00;0.00;;;8.80;75.50;;;;;;5050629;28;20670;-69
2023/03/17 07:58:03;;;;;;;0.00;0.00;;;8.70;75.20;;;;;;5068619;28;20056;-69
2023/03/17 08:00:29;;;;;;;0.00;0.00;;;8.80;75.30;;;;;;5071338;28;20086;-69
2023/03/17 08:02:55;;;;;;;1.08;0.98;;;8.90;75.60;;;;;;5077665;28;20064;-69
2023/03/17 08:05:21;;;;;;;0.00;0.00;;;8.90;75.00;;;;;;5072590;28;20040;-69
2023/03/17 08:07:47;;;;;;;1.75;1.38;;;8.90;74.80;;;;;;5059156;28;20083;-69
2023/03/17 08:10:13;;;;;;;0.00;0.00;;;9.00;74.80;;;;;;5071451;28;20040;-67
2023/03/17 08:12:40;;;;;;;0.00;0.00;;;9.10;74.50;;;;;;5053826;28;21038;-66
2023/03/17 08:15:06;;;;;;;0.00;0.00;;;9.10;74.80;;;;;;5071654;28;20492;-67
2023/03/17 08:17:33;;;;;;;0.00;0.00;;;9.10;74.40;;;;;;5071266;28;20051;-67
2023/03/17 08:19:59;;;;;;;0.00;0.00;;;9.20;74.70;;;;;;5071472;28;20048;-67
2023/03/17 08:22:24;;;;;;;0.10;0.10;;;9.20;74.60;;;;;;5071469;28;20071;-67
2023/03/17 08:24:50;;;;;;;0.00;0.00;;;9.30;74.50;;;;;;5071041;28;20063;-69
2023/03/17 08:27:17;;;;;;;0.00;0.00;;;9.30;73.90;;;;;;5071470;28;20147;-69
2023/03/17 08:29:43;;;;;;;0.00;0.00;;;9.40;74.10;;;;;;5069363;28;20489;-70
2023/03/17 08:32:09;;;;;;;0.00;0.00;;;9.50;73.80;;;;;;5068859;28;20076;-70
2023/03/17 08:34:35;;;;;;;0.15;0.15;;;9.60;73.30;;;;;;5077211;28;20056;-69
2023/03/17 08:37:01;;;;;;;0.10;0.10;;;9.60;73.40;;;;;;5070432;28;20063;-70
2023/03/17 08:39:27;;;;;;;1.75;1.55;;;9.70;73.40;;;;;;5059585;28;20078;-69
2023/03/17 08:41:53;;;;;;;0.00;0.00;;;9.80;73.30;;;;;;5069117;28;20032;-70
2023/03/17 08:44:19;;;;;;;0.00;0.00;;;10.00;73.00;;;;;;5070343;28;20127;-69
2023/03/17 08:46:46;;;;;;;0.10;0.10;;;10.10;73.00;;;;;;5064520;28;20044;-70
2023/03/17 08:49:12;;;;;;;0.20;0.20;;;10.20;72.90;;;;;;5069479;28;20096;-69
2023/03/17 08:51:38;;;;;;;0.10;0.10;;;10.30;73.10;;;;;;5071018;28;20060;-69
2023/03/17 08:54:05;;;;;;;0.00;0.00;;;10.40;73.00;;;;;;5069565;28;20110;-70
2023/03/17 08:56:31;;;;;;;0.00;0.00;;;10.60;72.00;;;;;;5070508;28;20090;-69
2023/03/17 08:58:57;;;;;;;0.10;0.10;;;10.70;71.40;;;;;;5070147;28;20052;-70
2023/03/17 09:01:23;;;;;;;0.00;0.00;;;10.80;71.10;;;;;;5070260;28;20106;-69
2023/03/17 09:03:52;;;;;;;0.32;0.30;;;10.90;70.70;;;;;;5070108;28;20056;-70
2023/03/17 09:06:18;;;;;;;0.00;0.00;;;11.00;71.00;;;;;;5055627;28;20044;-67
2023/03/17 09:08:46;;;;;;;0.00;0.00;;;11.10;71.30;;;;;;5060379;28;20060;-67
2023/03/17 09:11:17;;;;;;;0.00;0.00;;;11.20;71.20;;;;;;5059731;28;20467;-67
2023/03/17 09:13:45;;;;;;;0.00;0.00;;;11.20;70.00;;;;;;5063845;28;20048;-67
2023/03/17 09:16:11;;;;;;;0.00;0.00;;;11.40;70.70;;;;;;5059245;28;20120;-67
2023/03/17 09:18:37;;;;;;;0.00;0.00;;;11.50;70.60;;;;;;5067546;28;20100;-67
2023/03/17 09:21:04;;;;;;;0.00;0.00;;;11.60;70.40;;;;;;5065287;28;20135;-67
2023/03/17 09:23:30;;;;;;;0.00;0.00;;;11.60;69.30;;;;;;5041018;28;20117;-67
2023/03/17 09:25:56;;;;;;;0.00;0.00;;;11.80;69.40;;;;;;5073974;28;20044;-68
2023/03/17 09:28:22;;;;;;;0.08;0.08;;;11.90;69.10;;;;;;5069738;28;20577;-68
2023/03/17 09:30:48;;;;;;;0.10;0.10;;;11.90;67.80;;;;;;5035927;28;20063;-68
2023/03/17 09:33:14;;;;;;;0.00;0.00;;;12.00;68.40;;;;;;5068834;28;20118;-68
2023/03/17 09:35:40;;;;;;;0.00;0.00;;;12.00;68.70;;;;;;5069307;28;20878;-68
2023/03/17 09:38:07;;;;;;;0.00;0.00;;;12.10;68.70;;;;;;5059919;28;20084;-68
2023/03/17 09:40:38;;;;;;;0.10;0.10;;;12.10;68.30;;;;;;5059971;28;20127;-68
2023/03/17 09:43:18;;;;;;;0.00;0.00;;;12.10;68.90;;;;;;5064684;28;20046;-68
2023/03/17 09:45:44;;;;;;;0.30;0.30;;;12.10;69.40;;;;;;5056277;28;20283;-68
2023/03/17 09:48:24;;;;;;;0.00;0.00;;;12.20;67.40;;;;;;5071912;28;20045;-68
2023/03/17 09:51:03;;;;;;;0.00;0.00;;;12.20;67.60;;;;;;5057935;28;20040;-67
2023/03/17 09:53:39;;;;;;;0.00;0.00;;;12.10;66.80;;;;;;5050617;28;20136;-67
2023/03/17 09:56:10;;;;;;;0.00;0.00;;;12.20;67.60;;;;;;5083644;28;20076;-66
2023/03/17 09:58:38;;;;;;;0.00;0.00;;;12.20;68.20;;;;;;5071874;28;20144;-67
2023/03/17 10:01:04;;;;;;;0.00;0.00;;;12.30;69.00;;;;;;5068343;28;20094;-67
2023/03/17 10:03:31;;;;;;;0.00;0.00;;;12.30;68.50;;;;;;5062826;28;20048;-67
2023/03/17 10:06:20;;;;;;;0.00;0.00;;;12.40;68.30;;;;;;5057211;28;20102;-67
2023/03/17 10:09:40;;;;;;;0.45;0.45;;;12.50;67.90;;;;;;5062606;28;20168;-67
2023/03/17 10:12:17;;;;;;;0.00;0.00;;;12.50;67.90;;;;;;4958948;28;20144;-67
2023/03/17 10:14:53;;;;;;;0.00;0.00;;;12.60;68.30;;;;;;4949169;28;20098;-67
2023/03/17 10:17:21;;;;;;;0.10;0.10;;;12.60;68.00;;;;;;5013547;28;20136;-67
2023/03/17 10:20:22;;;;;;;0.00;0.00;;;12.60;68.60;;;;;;5068687;28;20067;-67
2023/03/17 10:22:52;;;;;;;0.00;0.00;;;12.70;68.60;;;;;;5068664;28;20505;-67
2023/03/17 10:25:22;;;;;;;0.00;0.00;;;12.70;68.20;;;;;;5067628;28;20123;-67
2023/03/17 10:27:58;;;;;;;0.88;0.85;;;12.70;68.90;;;;;;5068867;28;20032;-67
2023/03/17 10:30:25;;;;;;;0.00;0.00;;;12.90;68.60;;;;;;5069537;28;20049;-67
2023/03/17 10:32:52;;;;;;;0.00;0.00;;;13.00;68.10;;;;;;5069389;28;20029;-67
2023/03/17 10:35:19;;;;;;;0.65;0.65;;;13.00;67.80;;;;;;5069160;28;20048;-67
2023/03/17 10:37:47;;;;;;;0.00;0.00;;;13.00;67.80;;;;;;5069255;28;20131;-67
2023/03/17 10:40:23;;;;;;;0.00;0.00;;;13.00;66.70;;;;;;5068113;28;20051;-67
2023/03/17 10:43:06;;;;;;;0.10;0.10;;;13.10;66.80;;;;;;5068155;28;20045;-67
2023/03/17 10:45:45;;;;;;;0.32;0.32;;;13.10;65.60;;;;;;5068087;28;20040;-67
2023/03/17 10:48:17;;;;;;;0.20;0.20;;;13.10;66.20;;;;;;5067822;28;20092;-67
2023/03/17 10:50:45;;;;;;;0.22;0.22;;;13.10;65.80;;;;;;5068599;28;20048;-67
2023/03/17 10:53:28;;;;;;;0.22;0.22;;;13.10;66.10;;;;;;5066618;28;20052;-68
2023/03/17 10:56:05;;;;;;;0.00;0.00;;;13.10;65.10;;;;;;5049876;28;20128;-68
2023/03/17 10:58:43;;;;;;;0.35;0.35;;;13.10;64.90;;;;;;5068462;28;20509;-68
2023/03/17 11:01:35;;;;;;;0.30;0.30;;;13.20;65.30;;;;;;5068553;28;20059;-68
2023/03/17 11:04:05;;;;;;;0.20;0.20;;;13.20;65.30;;;;;;5036848;28;20122;-68
2023/03/17 11:06:41;;;;;;;0.00;0.00;;;13.10;65.30;;;;;;5068150;28;20056;-68
2023/03/17 11:09:09;;;;;;;0.10;0.10;;;13.20;65.00;;;;;;5067632;28;20056;-68
2023/03/17 11:11:44;;;;;;;0.00;0.00;;;13.20;65.90;;;;;;5071422;28;20044;-68
2023/03/17 11:14:18;;;;;;;0.00;0.00;;;13.20;65.00;;;;;;5075091;28;20556;-68
2023/03/17 11:16:52;;;;;;;0.00;0.00;;;13.20;65.60;;;;;;5074678;28;20037;-68
2023/03/17 11:19:20;;;;;;;0.10;0.10;;;13.30;65.90;;;;;;5056652;28;20080;-68
2023/03/17 11:22:14;;;;;;;0.10;0.10;;;13.30;66.20;;;;;;5057093;28;20052;-68
2023/03/17 11:25:01;;;;;;;0.08;0.08;;;13.30;65.40;;;;;;5073994;28;20048;-68
2023/03/17 11:27:33;;;;;;;0.00;0.00;;;13.40;64.90;;;;;;5074593;28;20037;-68
2023/03/17 11:30:00;;;;;;;0.20;0.20;;;13.40;65.60;;;;;;5073479;28;20072;-68
2023/03/17 11:32:47;;;;;;;0.55;0.55;;;13.50;65.20;;;;;;5074687;28;20135;-67
2023/03/17 11:35:34;;;;;;;1.00;0.90;;;13.40;65.50;;;;;;5073888;28;20534;-69
2023/03/17 11:38:08;;;;;;;0.00;0.00;;;13.50;65.80;;;;;;5069686;28;20040;-67
2023/03/17 11:40:53;;;;;;;0.03;0.03;;;13.50;66.10;;;;;;5052891;28;20049;-67
2023/03/17 11:43:24;;;;;;;0.30;0.30;;;13.50;65.50;;;;;;5068500;28;20789;-67
2023/03/17 11:46:03;;;;;;;0.00;0.00;;;13.60;64.90;;;;;;5073237;28;20044;-68
2023/03/17 11:48:59;;;;;;;0.00;0.00;;;13.60;66.10;;;;;;5070629;28;20558;-67
2023/03/17 11:51:48;;;;;;;2.17;0.47;;;13.60;65.00;;;;;;5071519;28;20052;-67
2023/03/17 11:54:35;;;;;;;0.00;0.00;;;13.60;65.20;;;;;;5072090;28;20819;-67
2023/03/17 11:57:04;;;;;;;0.00;0.00;;;13.70;65.70;;;;;;5055956;28;20508;-66
2023/03/17 11:59:51;;;;;;;0.00;0.00;;;13.70;66.20;;;;;;5073596;28;20086;-66
2023/03/17 12:02:37;;;;;;;0.00;0.00;;;13.70;65.80;;;;;;5071467;28;20550;-67
2023/03/17 12:05:17;;;;;;;0.10;0.10;;;13.70;66.30;;;;;;5055883;28;20582;-67
2023/03/17 12:07:52;;;;;;;0.00;0.00;;;13.70;66.60;;;;;;5071210;28;20095;-67
2023/03/17 12:10:49;;;;;;;0.08;0.08;;;13.70;66.40;;;;;;5054456;28;20049;-67
2023/03/17 12:13:42;;;;;;;0.00;0.00;;;13.60;66.40;;;;;;5079733;28;20500;-67
2023/03/17 12:16:44;;;;;;;0.15;0.15;;;13.60;67.10;;;;;;5061878;28;20040;-67
2023/03/17 12:19:23;;;;;;;0.00;0.00;;;13.70;66.80;;;;;;5052917;28;20591;-67
2023/03/17 12:21:58;;;;;;;0.00;0.00;;;13.70;66.40;;;;;;5075117;28;20052;-67
2023/03/17 12:24:47;;;;;;;0.00;0.00;;;13.70;66.90;;;;;;5069923;28;20128;-67
2023/03/17 12:27:16;;;;;;;0.00;0.00;;;13.70;66.50;;;;;;5053974;28;20044;-67
2023/03/17 12:29:51;;;;;;;0.00;0.00;;;13.70;66.80;;;;;;5071692;28;20047;-68
2023/03/17 12:32:48;;;;;;;0.00;0.00;;;13.80;67.10;;;;;;5068403;28;20051;-67
2023/03/17 12:35:25;;;;;;;0.28;0.28;;;13.80;66.90;;;;;;5068506;28;20071;-67
2023/03/17 12:37:51;;;;;;;0.00;0.00;;;13.90;66.80;;;;;;5070538;28;20078;-67
2023/03/17 12:40:50;;;;;;;0.70;0.70;;;13.80;66.60;;;;;;5069134;28;20116;-67
2023/03/17 12:43:33;;;;;;;0.52;0.47;;;13.70;67.00;;;;;;5038891;28;20048;-68
2023/03/17 12:46:04;;;;;;;0.00;0.00;;;13.70;67.40;;;;;;5070780;28;20125;-67
2023/03/17 12:49:12;;;;;;;0.00;0.00;;;13.70;67.40;;;;;;5067094;28;20106;-67
2023/03/17 12:51:40;;;;;;;0.00;0.00;;;13.60;67.70;;;;;;5041025;28;20060;-68
2023/03/17 12:54:29;;;;;;;0.00;0.00;;;13.60;67.90;;;;;;5081181;28;20060;-67
2023/03/17 12:57:26;;;;;;;0.00;0.00;;;13.60;68.10;;;;;;5067817;28;20041;-67
2023/03/17 13:00:14;;;;;;;0.00;0.00;;;13.60;68.00;;;;;;5068367;28;20738;-67
2023/03/17 13:02:40;;;;;;;0.00;0.00;;;13.50;68.30;;;;;;5069733;28;20114;-67
2023/03/17 13:05:12;;;;;;;0.00;0.00;;;13.60;68.70;;;;;;5069376;28;20524;-67
2023/03/17 13:07:43;;;;;;;;;;;13.60;68.90;;;;;;5069398;28;20755;-67